Time;durP1;ratioP1;P1;durP2;ratioP2;P2;SDS_P1;SDS_P2;PMS_P1;PMS_P2;Temp;Humidity;BMP_temperature;BMP_pressure;BME280_temperature;BME280_humidity;BME280_pressure;Samples;Min_cycle;Max_cycle;Signal;HPM_P1;HPM_P2
2023/01/27 00:00:50;;;;;;;16.90;12.05;;;17.10;53.00;;;;;;5081397;28;20032;-67
2023/01/27 00:03:17;;;;;;;17.08;12.15;;;17.10;52.90;;;;;;5081375;28;20047;-67
2023/01/27 00:05:43;;;;;;;15.60;11.50;;;17.10;52.90;;;;;;5081207;28;20018;-66
2023/01/27 00:08:09;;;;;;;18.30;11.90;;;17.20;53.00;;;;;;5080863;28;20078;-66
2023/01/27 00:10:35;;;;;;;15.57;12.18;;;17.20;53.00;;;;;;5081101;28;20016;-67
2023/01/27 00:15:46;;;;;;;17.27;12.48;;;17.10;52.90;;;;;;5080892;28;20011;-68
2023/01/27 00:18:11;;;;;;;16.38;12.07;;;17.10;53.60;;;;;;5080939;28;20032;-67
2023/01/27 00:26:13;;;;;;;16.02;11.40;;;16.90;53.40;;;;;;5080791;28;20050;-68
2023/01/27 00:28:40;;;;;;;15.60;11.55;;;16.80;53.60;;;;;;5080744;28;20328;-67
2023/01/27 00:33:54;;;;;;;17.80;12.25;;;16.70;53.80;;;;;;5080674;28;20085;-65
2023/01/27 00:36:21;;;;;;;18.33;11.95;;;16.60;53.80;;;;;;5080675;28;20028;-68
2023/01/27 00:38:47;;;;;;;14.95;10.93;;;16.50;54.10;;;;;;5080588;28;20098;-67
2023/01/27 00:41:19;;;;;;;16.25;11.32;;;16.50;54.20;;;;;;5080560;28;20032;-67
2023/01/27 00:43:52;;;;;;;16.08;11.88;;;16.40;54.10;;;;;;5080504;28;20031;-67
2023/01/27 00:46:21;;;;;;;17.33;12.48;;;16.40;54.40;;;;;;5080418;28;20051;-67
2023/01/27 00:48:47;;;;;;;15.60;11.38;;;16.40;54.50;;;;;;5080436;28;20370;-67
2023/01/27 00:51:14;;;;;;;15.45;12.30;;;16.40;54.60;;;;;;5079284;28;20032;-68
2023/01/27 00:53:40;;;;;;;18.70;11.95;;;16.40;54.80;;;;;;5080038;28;20028;-67
2023/01/27 00:56:07;;;;;;;16.80;12.63;;;16.40;54.60;;;;;;5080423;28;20031;-67
2023/01/27 00:58:33;;;;;;;15.20;11.20;;;16.50;54.50;;;;;;5080379;28;20036;-67
2023/01/27 01:01:02;;;;;;;14.43;11.75;;;16.70;54.30;;;;;;5080249;28;20024;-67
2023/01/27 01:03:32;;;;;;;14.80;10.95;;;16.80;54.00;;;;;;5080249;28;20032;-67
2023/01/27 01:06:04;;;;;;;16.48;11.05;;;16.90;53.80;;;;;;5080157;28;20032;-67
2023/01/27 01:08:31;;;;;;;15.82;11.65;;;17.00;53.50;;;;;;5080035;28;20050;-67
2023/01/27 01:10:57;;;;;;;15.35;11.48;;;17.00;53.30;;;;;;5080140;28;20044;-67
2023/01/27 01:13:24;;;;;;;14.70;10.57;;;17.10;53.20;;;;;;5080205;28;20344;-67
2023/01/27 01:15:50;;;;;;;13.45;10.18;;;17.10;53.10;;;;;;5080124;28;20031;-66
2023/01/27 01:18:15;;;;;;;14.40;10.82;;;17.10;53.00;;;;;;5080080;28;20029;-68
2023/01/27 01:20:43;;;;;;;15.52;11.68;;;17.10;52.90;;;;;;5080090;28;20030;-67
2023/01/27 01:23:10;;;;;;;15.18;11.18;;;17.10;52.90;;;;;;5080069;28;20033;-67
2023/01/27 01:25:36;;;;;;;13.55;10.98;;;17.10;53.00;;;;;;5080052;28;20036;-67
2023/01/27 01:28:04;;;;;;;13.95;10.55;;;17.10;52.90;;;;;;5079881;28;20033;-67
2023/01/27 01:30:32;;;;;;;19.30;12.30;;;17.00;53.00;;;;;;5079988;28;20066;-68
2023/01/27 01:32:58;;;;;;;17.92;11.50;;;17.00;53.20;;;;;;5079935;28;20016;-67
2023/01/27 01:35:24;;;;;;;13.77;10.60;;;16.90;53.30;;;;;;5079890;28;20087;-67
2023/01/27 01:37:52;;;;;;;14.18;10.63;;;16.80;53.40;;;;;;5078718;28;20031;-67
2023/01/27 01:40:18;;;;;;;16.27;10.37;;;16.70;53.60;;;;;;5080024;28;20080;-67
2023/01/27 01:42:51;;;;;;;14.00;9.85;;;16.70;53.80;;;;;;5079876;28;20043;-66
2023/01/27 01:45:32;;;;;;;17.13;12.05;;;16.60;53.70;;;;;;5079870;28;20020;-67
2023/01/27 01:48:02;;;;;;;15.35;11.15;;;16.50;53.90;;;;;;5079735;28;20024;-67
2023/01/27 01:50:28;;;;;;;13.90;10.10;;;16.50;54.10;;;;;;5079830;28;20009;-67
2023/01/27 01:52:54;;;;;;;13.88;10.48;;;16.40;54.10;;;;;;5079945;28;20025;-67
2023/01/27 01:55:22;;;;;;;13.93;10.48;;;16.40;54.30;;;;;;5079850;28;20024;-67
2023/01/27 01:57:48;;;;;;;14.23;10.77;;;16.30;54.40;;;;;;5079704;28;20083;-67
2023/01/27 02:00:14;;;;;;;15.35;10.43;;;16.30;54.50;;;;;;5079829;28;20032;-68
2023/01/27 02:02:41;;;;;;;15.05;10.65;;;16.30;54.60;;;;;;5079813;28;20028;-66
2023/01/27 02:05:12;;;;;;;15.15;11.10;;;16.40;54.60;;;;;;5079741;28;20365;-67
2023/01/27 02:07:48;;;;;;;15.75;10.45;;;16.40;54.40;;;;;;5082935;28;20032;-67
2023/01/27 02:10:14;;;;;;;12.48;9.93;;;16.60;54.30;;;;;;5083529;28;20017;-68
2023/01/27 02:12:40;;;;;;;15.82;10.48;;;16.70;54.10;;;;;;5083532;28;20031;-67
2023/01/27 02:15:07;;;;;;;15.23;11.43;;;16.80;53.80;;;;;;5083355;28;20016;-66
2023/01/27 02:17:34;;;;;;;12.77;9.55;;;16.90;53.60;;;;;;5083220;28;20021;-68
2023/01/27 02:20:36;;;;;;;14.23;11.00;;;17.00;53.40;;;;;;5083165;28;20029;-67
2023/01/27 02:23:21;;;;;;;14.00;9.73;;;17.10;53.20;;;;;;5083126;28;20087;-67
2023/01/27 02:25:56;;;;;;;13.95;10.63;;;17.10;53.10;;;;;;5083012;28;20020;-67
2023/01/27 02:28:25;;;;;;;12.35;9.88;;;17.10;52.90;;;;;;5082921;28;20032;-67
2023/01/27 02:30:50;;;;;;;13.13;9.43;;;17.10;52.90;;;;;;5082958;28;20025;-66
2023/01/27 02:33:16;;;;;;;14.65;9.77;;;17.10;52.90;;;;;;5082929;28;20032;-67
2023/01/27 02:35:59;;;;;;;13.10;9.35;;;17.10;52.90;;;;;;5082874;28;20039;-67
2023/01/27 02:38:31;;;;;;;14.27;10.02;;;17.10;52.90;;;;;;5082881;28;20032;-66
2023/01/27 02:41:26;;;;;;;12.80;9.30;;;17.00;53.10;;;;;;5082804;28;20035;-68
2023/01/27 02:43:52;;;;;;;12.10;9.68;;;16.90;53.10;;;;;;5058883;28;20422;-67
2023/01/27 02:46:18;;;;;;;14.20;10.63;;;16.80;53.30;;;;;;5082572;28;20032;-67
2023/01/27 02:48:44;;;;;;;12.55;10.15;;;16.80;53.50;;;;;;5082621;28;20220;-67
2023/01/27 02:51:11;;;;;;;11.73;8.75;;;16.60;53.50;;;;;;5082609;28;20034;-67
2023/01/27 02:53:37;;;;;;;11.88;9.18;;;16.70;53.70;;;;;;5082562;28;20016;-67
2023/01/27 02:56:03;;;;;;;11.95;9.05;;;16.60;53.70;;;;;;5082498;28;20020;-66
2023/01/27 02:58:29;;;;;;;13.07;9.73;;;16.50;53.80;;;;;;5082411;28;20102;-66
2023/01/27 03:00:55;;;;;;;13.15;9.80;;;16.50;53.90;;;;;;5082406;28;20093;-67
2023/01/27 03:03:21;;;;;;;12.40;9.30;;;16.40;54.10;;;;;;5082353;28;20193;-66
2023/01/27 03:05:50;;;;;;;14.18;10.02;;;16.40;54.10;;;;;;5082326;28;20060;-67
2023/01/27 03:08:16;;;;;;;;;;;16.30;54.30;;;;;;5081213;28;20385;-67
2023/01/27 03:10:42;;;;;;;12.50;9.50;;;16.30;54.50;;;;;;5082217;28;19904;-66
2023/01/27 03:13:08;;;;;;;12.23;9.55;;;16.40;54.40;;;;;;5082140;28;20399;-66
2023/01/27 03:18:18;;;;;;;12.93;10.13;;;16.60;54.10;;;;;;5081609;28;20071;-66
2023/01/27 03:20:48;;;;;;;12.35;8.75;;;16.70;53.80;;;;;;5082098;28;20340;-67
2023/01/27 03:23:16;;;;;;;11.73;8.98;;;16.80;53.60;;;;;;5081974;28;20024;-67
2023/01/27 03:25:47;;;;;;;11.10;8.60;;;16.90;53.40;;;;;;5081839;28;20058;-66
2023/01/27 03:28:14;;;;;;;12.52;9.60;;;17.00;53.20;;;;;;5081844;28;20055;-66
2023/01/27 03:30:40;;;;;;;12.35;8.90;;;17.00;53.00;;;;;;5081894;28;20025;-66
2023/01/27 03:33:06;;;;;;;13.45;9.93;;;17.10;52.90;;;;;;5081840;28;20028;-66
2023/01/27 03:35:37;;;;;;;12.27;9.00;;;17.10;52.90;;;;;;5081746;28;20066;-66
2023/01/27 03:46:26;;;;;;;13.10;9.50;;;17.10;52.80;;;;;;5081573;28;20028;-67
2023/01/27 03:48:55;;;;;;;12.85;9.13;;;17.00;52.80;;;;;;5081444;28;20047;-67
2023/01/27 03:51:23;;;;;;;12.25;9.27;;;17.00;52.80;;;;;;5081457;28;20036;-66
2023/01/27 03:53:49;;;;;;;13.25;9.07;;;16.90;52.90;;;;;;5080001;28;20082;-67
2023/01/27 03:56:19;;;;;;;10.82;8.30;;;16.90;53.10;;;;;;5081291;28;20051;-67
2023/01/27 03:58:46;;;;;;;12.05;9.43;;;16.80;53.30;;;;;;5081264;28;20028;-65
2023/01/27 04:01:18;;;;;;;14.20;10.38;;;16.70;53.30;;;;;;5081223;28;20035;-67
2023/01/27 04:09:31;;;;;;;13.35;9.68;;;16.50;53.60;;;;;;5081114;28;20666;-67
2023/01/27 04:11:58;;;;;;;14.45;9.73;;;16.50;53.70;;;;;;5081082;28;20040;-67
2023/01/27 04:14:29;;;;;;;13.57;10.00;;;16.40;53.80;;;;;;5081017;28;20052;-67
2023/01/27 04:16:59;;;;;;;12.02;8.70;;;16.40;54.10;;;;;;5080978;28;20050;-67
2023/01/27 04:19:25;;;;;;;11.38;8.30;;;16.30;54.20;;;;;;5080874;28;20078;-66
2023/01/27 04:21:51;;;;;;;11.93;9.05;;;16.30;54.20;;;;;;5080748;28;20030;-68
2023/01/27 04:24:24;;;;;;;13.10;9.60;;;16.40;54.70;;;;;;5080738;28;20098;-67
2023/01/27 04:26:58;;;;;;;14.43;9.55;;;16.50;54.10;;;;;;5080685;28;20228;-67
2023/01/27 04:29:29;;;;;;;12.25;8.98;;;16.60;53.80;;;;;;5079980;28;20275;-67
2023/01/27 04:31:56;;;;;;;11.45;8.27;;;16.70;53.60;;;;;;5080652;28;20078;-67
2023/01/27 04:34:23;;;;;;;11.20;8.50;;;16.80;53.40;;;;;;5080681;28;20020;-67
2023/01/27 04:36:49;;;;;;;11.13;8.70;;;16.90;53.40;;;;;;5080745;28;20610;-68
2023/01/27 04:39:17;;;;;;;9.77;8.05;;;16.90;53.10;;;;;;5080639;28;20208;-66
2023/01/27 04:41:44;;;;;;;12.23;9.30;;;16.90;53.10;;;;;;5080535;28;20046;-66
2023/01/27 04:44:11;;;;;;;10.13;7.88;;;17.00;53.00;;;;;;5080429;28;20083;-67
2023/01/27 04:46:37;;;;;;;13.75;9.13;;;17.00;52.90;;;;;;5080466;28;20039;-67
2023/01/27 04:49:04;;;;;;;11.73;8.70;;;17.10;52.80;;;;;;5080362;28;20251;-67
2023/01/27 04:51:30;;;;;;;11.35;8.98;;;17.00;52.80;;;;;;5080356;28;20227;-67
2023/01/27 04:53:56;;;;;;;10.35;8.45;;;17.00;52.90;;;;;;5080363;28;20043;-66
2023/01/27 04:56:31;;;;;;;11.48;9.10;;;16.90;52.80;;;;;;5080314;28;20013;-67
2023/01/27 04:58:59;;;;;;;12.23;8.57;;;16.90;52.90;;;;;;5080235;28;20220;-66
2023/01/27 05:01:26;;;;;;;12.60;9.07;;;16.80;53.10;;;;;;5080261;28;20130;-67
2023/01/27 05:03:53;;;;;;;13.25;8.93;;;16.70;53.20;;;;;;5080137;28;20020;-67
2023/01/27 05:06:19;;;;;;;11.23;8.05;;;16.60;53.30;;;;;;5079970;28;20024;-67
2023/01/27 05:08:45;;;;;;;11.38;8.50;;;16.60;53.40;;;;;;5079982;28;20325;-66
2023/01/27 05:11:11;;;;;;;12.27;8.70;;;16.50;53.60;;;;;;5080004;28;20081;-68
2023/01/27 05:13:39;;;;;;;13.85;9.57;;;16.50;53.70;;;;;;5080095;28;20054;-66
2023/01/27 05:16:11;;;;;;;11.98;8.40;;;16.40;53.70;;;;;;5080086;28;20087;-66
2023/01/27 05:18:37;;;;;;;10.93;8.63;;;16.40;53.90;;;;;;5080044;28;20032;-67
2023/01/27 05:21:04;;;;;;;11.38;8.23;;;16.30;53.80;;;;;;5080132;28;20024;-67
2023/01/27 05:23:36;;;;;;;10.02;7.85;;;16.30;54.00;;;;;;5080221;28;20025;-66
2023/01/27 05:26:16;;;;;;;9.18;7.22;;;16.30;54.20;;;;;;5080065;28;20247;-67
2023/01/27 05:28:44;;;;;;;10.50;7.95;;;16.30;54.30;;;;;;5080006;28;20066;-68
2023/01/27 05:31:22;;;;;;;10.50;8.20;;;16.30;54.20;;;;;;5079994;28;20020;-67
2023/01/27 05:33:50;;;;;;;10.15;7.65;;;16.40;54.20;;;;;;5080092;28;20024;-66
2023/01/27 05:36:18;;;;;;;12.15;8.75;;;16.50;54.00;;;;;;5080124;28;20028;-67
2023/01/27 05:38:45;;;;;;;10.38;8.40;;;16.60;53.90;;;;;;5080005;28;20024;-67
2023/01/27 05:41:12;;;;;;;10.00;7.75;;;16.70;53.60;;;;;;5082971;28;20031;-67
2023/01/27 05:43:39;;;;;;;10.85;8.35;;;16.80;53.40;;;;;;5082705;28;20030;-66
2023/01/27 05:46:14;;;;;;;10.30;8.43;;;16.90;53.30;;;;;;5083956;28;20100;-66
2023/01/27 05:48:42;;;;;;;11.05;8.43;;;16.90;53.10;;;;;;5083898;28;20325;-67
2023/01/27 05:51:10;;;;;;;10.73;8.43;;;16.90;53.00;;;;;;5084002;28;20126;-68
2023/01/27 05:53:36;;;;;;;9.02;7.35;;;16.90;52.90;;;;;;5083932;28;20024;-67
2023/01/27 05:56:03;;;;;;;11.90;8.85;;;17.00;52.90;;;;;;5083800;28;20033;-67
2023/01/27 05:58:30;;;;;;;9.85;8.48;;;17.00;52.70;;;;;;5083584;28;20016;-67
2023/01/27 06:01:04;;;;;;;10.40;7.88;;;17.00;52.70;;;;;;5083647;28;20035;-68
2023/01/27 06:03:30;;;;;;;9.52;7.47;;;17.00;52.60;;;;;;5083569;28;20032;-67
2023/01/27 06:05:56;;;;;;;10.43;8.30;;;17.10;52.70;;;;;;5083477;28;20092;-66
2023/01/27 06:08:24;;;;;;;9.57;7.50;;;17.00;52.50;;;;;;5083245;28;20374;-68
2023/01/27 06:10:50;;;;;;;11.38;7.50;;;17.00;52.40;;;;;;5083375;28;20036;-67
2023/01/27 06:13:16;;;;;;;10.68;8.10;;;17.00;52.50;;;;;;5083403;28;20017;-67
2023/01/27 06:15:44;;;;;;;10.05;7.47;;;17.00;52.50;;;;;;5083287;28;20312;-67
2023/01/27 06:18:10;;;;;;;10.55;8.02;;;16.90;52.60;;;;;;5083150;28;20091;-67
2023/01/27 06:20:37;;;;;;;10.98;8.15;;;16.90;52.80;;;;;;5083197;28;20017;-68
2023/01/27 06:23:03;;;;;;;8.70;7.32;;;16.80;52.80;;;;;;5083120;28;20092;-67
2023/01/27 06:25:29;;;;;;;11.02;8.38;;;16.80;53.60;;;;;;5083104;28;20489;-66
2023/01/27 06:27:56;;;;;;;11.02;7.78;;;16.70;53.10;;;;;;5083013;28;20032;-67
2023/01/27 06:30:22;;;;;;;10.18;7.90;;;16.60;53.10;;;;;;5082993;28;20019;-67
2023/01/27 06:32:48;;;;;;;9.77;7.40;;;16.60;53.30;;;;;;5082949;28;20025;-68
2023/01/27 06:35:14;;;;;;;9.45;7.72;;;16.50;53.40;;;;;;5082973;28;20023;-67
2023/01/27 06:37:40;;;;;;;10.10;7.60;;;16.40;53.50;;;;;;5082904;28;20036;-67
2023/01/27 06:40:06;;;;;;;9.45;7.30;;;16.40;53.70;;;;;;5082850;28;20483;-67
2023/01/27 06:42:32;;;;;;;10.82;7.90;;;16.40;53.90;;;;;;5082860;28;20031;-67
2023/01/27 06:44:58;;;;;;;11.02;7.78;;;16.40;54.00;;;;;;5082748;28;20032;-67
2023/01/27 06:47:23;;;;;;;9.50;7.75;;;16.30;54.00;;;;;;5082681;28;20247;-68
2023/01/27 06:49:49;;;;;;;10.13;8.05;;;16.30;54.10;;;;;;5082718;28;20020;-67
2023/01/27 06:52:15;;;;;;;10.70;7.93;;;16.40;54.10;;;;;;5081855;28;20331;-67
2023/01/27 06:54:41;;;;;;;10.30;7.68;;;16.50;54.00;;;;;;5082623;28;20021;-67
2023/01/27 06:57:08;;;;;;;9.02;7.35;;;16.60;53.80;;;;;;5082571;28;20032;-69
2023/01/27 06:59:34;;;;;;;10.48;8.00;;;16.70;53.60;;;;;;5082610;28;20043;-68
2023/01/27 07:02:00;;;;;;;9.40;7.50;;;16.80;53.40;;;;;;5082504;28;20021;-67
2023/01/27 07:04:26;;;;;;;9.52;7.32;;;16.90;53.20;;;;;;5082454;28;20048;-67
2023/01/27 07:06:52;;;;;;;11.07;7.53;;;16.90;53.00;;;;;;5082181;28;20267;-68
2023/01/27 07:09:18;;;;;;;9.30;7.20;;;16.90;52.90;;;;;;5082445;28;20036;-67
2023/01/27 07:11:44;;;;;;;8.73;6.85;;;17.00;52.90;;;;;;5082391;28;20016;-68
2023/01/27 07:14:10;;;;;;;10.43;7.57;;;17.00;52.90;;;;;;5082344;28;20024;-67
2023/01/27 07:16:35;;;;;;;9.40;7.25;;;17.00;52.60;;;;;;5082319;28;20242;-68
2023/01/27 07:19:01;;;;;;;10.38;7.60;;;17.00;52.60;;;;;;5082389;28;20028;-68
2023/01/27 07:21:27;;;;;;;7.75;6.65;;;17.00;52.60;;;;;;5082280;28;20036;-67
2023/01/27 07:23:53;;;;;;;10.38;6.63;;;17.00;52.80;;;;;;5082243;28;20029;-67
2023/01/27 07:26:19;;;;;;;10.88;7.72;;;16.90;52.70;;;;;;5082099;28;20032;-68
2023/01/27 07:28:44;;;;;;;10.48;7.18;;;16.90;52.80;;;;;;5082027;28;20034;-68
2023/01/27 07:31:10;;;;;;;10.27;7.45;;;16.80;52.80;;;;;;5081993;28;20024;-68
2023/01/27 07:33:36;;;;;;;9.32;7.10;;;16.80;53.20;;;;;;5081955;28;20476;-69
2023/01/27 07:36:02;;;;;;;10.27;7.50;;;16.70;53.30;;;;;;5081875;28;20027;-67
2023/01/27 07:38:27;;;;;;;8.43;6.93;;;16.60;53.30;;;;;;5081902;28;20024;-67
2023/01/27 07:40:53;;;;;;;9.85;7.13;;;16.60;53.40;;;;;;5081898;28;20032;-68
2023/01/27 07:43:19;;;;;;;8.82;7.18;;;16.50;53.40;;;;;;5081804;28;20024;-67
2023/01/27 07:45:47;;;;;;;9.55;7.43;;;16.50;53.50;;;;;;5081765;28;20033;-67
2023/01/27 07:48:15;;;;;;;8.68;7.10;;;16.50;53.70;;;;;;5081709;28;20028;-67
2023/01/27 07:50:41;;;;;;;10.10;7.57;;;16.40;53.80;;;;;;5089677;28;20052;-68
2023/01/27 07:53:06;;;;;;;11.38;6.85;;;16.40;53.70;;;;;;5095195;28;20035;-68
2023/01/27 07:55:32;;;;;;;13.05;7.85;;;16.40;54.00;;;;;;5100447;28;20099;-68
2023/01/27 07:57:58;;;;;;;12.95;8.02;;;16.40;53.80;;;;;;5101684;28;20043;-68
2023/01/27 08:00:24;;;;;;;9.73;7.15;;;16.50;53.60;;;;;;5101701;28;20366;-67
2023/01/27 08:02:51;;;;;;;11.10;7.68;;;16.70;53.50;;;;;;5101539;28;20142;-68
2023/01/27 08:05:17;;;;;;;14.50;7.25;;;16.70;53.40;;;;;;5101629;28;20050;-67
2023/01/27 08:07:43;;;;;;;11.63;7.22;;;16.80;53.20;;;;;;5100944;28;20364;-69
2023/01/27 08:10:09;;;;;;;19.17;8.32;;;16.90;53.10;;;;;;5099889;28;20098;-69
2023/01/27 08:12:35;;;;;;;26.08;8.32;;;16.90;53.00;;;;;;5098194;28;20031;-69
2023/01/27 08:15:01;;;;;;;27.63;8.52;;;17.00;53.10;;;;;;5101129;28;20024;-68
2023/01/27 08:17:27;;;;;;;17.13;8.57;;;17.00;53.10;;;;;;5101234;28;20045;-68
2023/01/27 08:19:53;;;;;;;21.63;7.93;;;17.00;53.00;;;;;;5100972;28;20040;-66
2023/01/27 08:22:21;;;;;;;18.40;7.70;;;17.10;53.00;;;;;;5100826;28;20212;-69
2023/01/27 08:24:48;;;;;;;13.75;7.82;;;17.10;52.90;;;;;;5100950;28;20075;-67
2023/01/27 08:27:15;;;;;;;23.25;8.48;;;17.20;53.00;;;;;;5100859;28;20028;-68
2023/01/27 08:29:41;;;;;;;14.32;7.30;;;17.20;53.00;;;;;;5100869;28;20027;-68
2023/01/27 08:32:07;;;;;;;13.13;7.70;;;17.20;52.90;;;;;;5100822;28;20220;-68
2023/01/27 08:34:33;;;;;;;17.85;7.88;;;17.20;53.00;;;;;;5098374;28;20328;-68
2023/01/27 08:36:58;;;;;;;16.50;7.03;;;17.20;53.00;;;;;;5100340;28;20048;-65
2023/01/27 08:39:24;;;;;;;15.90;7.05;;;17.30;53.00;;;;;;5100535;28;20027;-69
2023/01/27 08:41:51;;;;;;;11.05;7.57;;;17.30;53.00;;;;;;5100410;28;20035;-68
2023/01/27 08:44:17;;;;;;;10.38;7.13;;;17.30;52.90;;;;;;5099794;28;20024;-67
2023/01/27 08:46:42;;;;;;;14.50;6.90;;;17.40;52.90;;;;;;5100540;28;20019;-68
2023/01/27 08:49:08;;;;;;;19.13;7.30;;;17.40;52.90;;;;;;5100400;28;20062;-67
2023/01/27 08:51:34;;;;;;;13.77;7.20;;;17.50;52.90;;;;;;5100317;28;20106;-67
2023/01/27 08:54:00;;;;;;;9.13;6.95;;;17.50;52.90;;;;;;5099718;28;20016;-68
2023/01/27 08:56:26;;;;;;;11.25;6.57;;;17.50;53.00;;;;;;5100477;28;20016;-69
2023/01/27 08:58:52;;;;;;;17.65;7.40;;;17.50;52.90;;;;;;5099594;28;20032;-67
2023/01/27 09:01:19;;;;;;;10.82;7.07;;;17.50;52.90;;;;;;5098420;28;20087;-67
2023/01/27 09:03:45;;;;;;;10.98;6.78;;;17.50;52.90;;;;;;5100181;28;20040;-66
2023/01/27 09:06:12;;;;;;;10.43;6.88;;;17.60;52.90;;;;;;5098466;28;20299;-67
2023/01/27 09:08:39;;;;;;;8.90;6.82;;;17.60;52.80;;;;;;5098525;28;20105;-67
2023/01/27 09:11:13;;;;;;;11.80;6.53;;;17.60;52.70;;;;;;5099866;28;20089;-66
2023/01/27 09:13:39;;;;;;;12.68;7.13;;;17.60;52.80;;;;;;5099658;28;20028;-66
2023/01/27 09:16:05;;;;;;;10.65;7.00;;;17.60;52.80;;;;;;5099602;28;20407;-68
2023/01/27 09:18:32;;;;;;;11.00;6.28;;;17.60;52.80;;;;;;5100267;28;20087;-66
2023/01/27 09:21:05;;;;;;;9.75;6.35;;;17.60;52.80;;;;;;5100058;28;20331;-66
2023/01/27 09:23:34;;;;;;;11.07;6.97;;;17.70;52.80;;;;;;5098779;28;20036;-65
2023/01/27 09:26:00;;;;;;;15.68;6.90;;;17.60;52.70;;;;;;5117433;28;20028;-67
2023/01/27 09:28:26;;;;;;;11.43;6.38;;;17.70;52.80;;;;;;5119927;28;20189;-67
2023/01/27 09:30:56;;;;;;;8.45;6.40;;;17.70;52.70;;;;;;5120306;28;20316;-66
2023/01/27 09:33:22;;;;;;;14.50;7.20;;;17.70;52.60;;;;;;5120352;28;20019;-65
2023/01/27 09:35:56;;;;;;;8.55;6.57;;;17.70;52.70;;;;;;5103585;28;20078;-67
2023/01/27 09:38:25;;;;;;;9.30;6.45;;;17.70;52.60;;;;;;5085814;28;20063;-67
2023/01/27 09:41:13;;;;;;;11.25;6.70;;;17.70;52.60;;;;;;5094973;28;20424;-67
2023/01/27 09:43:51;;;;;;;10.93;6.65;;;17.70;53.20;;;;;;5099674;28;20047;-65
2023/01/27 09:46:24;;;;;;;8.57;6.18;;;17.70;52.50;;;;;;5099198;28;20043;-65
2023/01/27 09:49:17;;;;;;;10.43;6.60;;;17.80;52.50;;;;;;5099922;28;20024;-66
2023/01/27 09:52:21;;;;;;;10.02;6.25;;;17.80;52.50;;;;;;5099780;28;20024;-64
2023/01/27 09:55:02;;;;;;;15.00;7.00;;;17.80;52.60;;;;;;5046790;28;20065;-65
2023/01/27 09:57:28;;;;;;;9.05;6.32;;;17.80;52.70;;;;;;5094572;28;20051;-67
2023/01/27 10:00:32;;;;;;;6.90;5.60;;;17.80;52.80;;;;;;5099733;28;20028;-67
2023/01/27 10:03:09;;;;;;;9.07;7.03;;;17.80;52.60;;;;;;5099845;28;20375;-66
2023/01/27 10:06:18;;;;;;;9.47;6.27;;;17.80;52.70;;;;;;5099786;28;20043;-67
2023/01/27 10:08:59;;;;;;;12.43;6.55;;;17.90;52.70;;;;;;5072967;28;20048;-67
2023/01/27 10:12:03;;;;;;;8.57;6.18;;;17.80;52.60;;;;;;5095955;28;20029;-68
2023/01/27 10:14:42;;;;;;;7.57;6.38;;;17.80;52.60;;;;;;5047956;28;20347;-67
2023/01/27 10:17:37;;;;;;;8.77;6.18;;;17.80;52.70;;;;;;5056535;28;20025;-66
2023/01/27 10:20:29;;;;;;;11.90;7.05;;;17.80;52.80;;;;;;5069088;28;20040;-66
2023/01/27 10:23:24;;;;;;;9.10;6.38;;;17.80;52.80;;;;;;5093140;28;20247;-66
2023/01/27 10:26:03;;;;;;;13.98;8.13;;;17.70;52.80;;;;;;5077905;28;20359;-69
2023/01/27 10:28:31;;;;;;;8.68;6.50;;;17.40;51.20;;;;;;5082341;28;20055;-68
2023/01/27 10:31:25;;;;;;;9.05;6.70;;;17.40;53.00;;;;;;5082778;28;20031;-68
2023/01/27 10:33:59;;;;;;;11.18;7.00;;;17.40;53.10;;;;;;5082956;28;20024;-69
2023/01/27 10:36:28;;;;;;;25.63;8.38;;;17.40;53.10;;;;;;5082749;28;20035;-68
2023/01/27 10:38:54;;;;;;;12.82;7.90;;;17.30;53.00;;;;;;5082813;28;20044;-70
2023/01/27 10:41:44;;;;;;;15.27;6.82;;;17.30;53.30;;;;;;5082616;28;20019;-69
2023/01/27 10:44:29;;;;;;;18.98;7.97;;;17.20;53.40;;;;;;5089148;28;20084;-68
2023/01/27 10:47:17;;;;;;;16.17;7.50;;;17.20;53.60;;;;;;5082480;28;20086;-69
2023/01/27 10:50:06;;;;;;;18.15;6.75;;;17.20;53.70;;;;;;5082635;28;20043;-69
2023/01/27 10:53:06;;;;;;;13.57;6.70;;;17.20;53.80;;;;;;5082530;28;20098;-70
2023/01/27 10:56:05;;;;;;;12.63;6.85;;;17.10;53.90;;;;;;5074113;28;20056;-69
2023/01/27 10:58:43;;;;;;;15.18;7.00;;;17.10;53.90;;;;;;5059241;28;20221;-69
2023/01/27 11:01:13;;;;;;;12.50;6.53;;;17.10;53.90;;;;;;5082266;28;20029;-69
2023/01/27 11:03:50;;;;;;;9.48;5.88;;;17.10;54.00;;;;;;5082462;28;20020;-69
2023/01/27 11:06:26;;;;;;;12.20;6.70;;;17.10;54.00;;;;;;5082205;28;20305;-70
2023/01/27 11:09:04;;;;;;;9.73;6.43;;;17.00;54.10;;;;;;5082159;28;20052;-68
2023/01/27 11:11:45;;;;;;;14.18;6.50;;;17.00;54.00;;;;;;5099918;28;20024;-69
2023/01/27 11:14:16;;;;;;;14.75;7.00;;;17.00;54.00;;;;;;5090428;28;20246;-69
2023/01/27 11:16:48;;;;;;;127.88;18.60;;;17.00;53.70;;;;;;5084181;28;20166;-69
2023/01/27 11:19:41;;;;;;;32.72;8.40;;;16.90;53.50;;;;;;5102328;28;20023;-69
2023/01/27 11:22:21;;;;;;;20.77;7.40;;;16.90;53.30;;;;;;5102293;28;20032;-70
2023/01/27 11:24:57;;;;;;;18.60;7.30;;;16.90;53.40;;;;;;5102164;28;20043;-69
2023/01/27 11:27:29;;;;;;;24.02;7.97;;;16.90;53.60;;;;;;5102057;28;20090;-68
2023/01/27 11:30:00;;;;;;;11.43;6.00;;;16.90;53.50;;;;;;5101599;28;20050;-68
2023/01/27 11:32:49;;;;;;;11.57;7.35;;;16.90;53.50;;;;;;5102095;28;20230;-70
2023/01/27 11:35:15;;;;;;;14.65;7.03;;;17.00;53.50;;;;;;5101518;28;20058;-70
2023/01/27 11:37:49;;;;;;;11.95;6.20;;;16.90;53.40;;;;;;5101516;28;20391;-70
2023/01/27 11:40:30;;;;;;;9.75;6.43;;;16.90;53.60;;;;;;5101667;28;20031;-70
2023/01/27 11:42:58;;;;;;;37.60;10.02;;;17.00;53.70;;;;;;5100387;28;20087;-68
2023/01/27 11:45:24;;;;;;;13.77;6.78;;;16.30;42.80;;;;;;5096476;28;20449;-70
2023/01/27 11:47:56;;;;;;;21.30;8.07;;;16.40;52.40;;;;;;5100891;28;20055;-69
2023/01/27 11:50:30;;;;;;;32.10;8.65;;;16.60;52.80;;;;;;5101741;28;20016;-70
2023/01/27 11:53:09;;;;;;;19.83;6.90;;;16.70;53.20;;;;;;5101818;28;20024;-69
2023/01/27 11:55:42;;;;;;;23.45;7.00;;;16.90;53.20;;;;;;5101809;28;20046;-65
2023/01/27 11:58:19;;;;;;;15.13;7.15;;;17.00;53.10;;;;;;5095303;28;20085;-68
2023/01/27 12:00:50;;;;;;;16.85;7.35;;;17.10;52.90;;;;;;5097245;28;20042;-70
2023/01/27 12:03:41;;;;;;;13.73;6.57;;;17.20;52.40;;;;;;5100793;28;20028;-69
2023/01/27 12:06:16;;;;;;;20.40;12.40;;;17.30;52.20;;;;;;5098492;28;20077;-68
2023/01/27 12:08:45;;;;;;;28.27;17.02;;;17.30;52.10;;;;;;5098014;28;20042;-69
2023/01/27 12:11:27;;;;;;;;;;;17.20;52.30;;;;;;5098493;28;20335;-68
2023/01/27 12:14:03;;;;;;;27.27;15.95;;;17.20;52.60;;;;;;5099673;28;19919;-67
2023/01/27 12:16:50;;;;;;;25.20;15.52;;;17.10;52.90;;;;;;5080516;28;20473;-70
2023/01/27 12:19:19;;;;;;;30.25;16.67;;;17.10;53.00;;;;;;5080802;28;20365;-69
2023/01/27 12:21:49;;;;;;;25.92;14.43;;;17.10;53.30;;;;;;5080618;28;20028;-69
2023/01/27 12:24:28;;;;;;;24.80;14.93;;;17.00;53.40;;;;;;5084762;28;20133;-69
2023/01/27 12:26:56;;;;;;;26.13;13.98;;;17.00;53.50;;;;;;5108646;28;20036;-70
2023/01/27 12:29:27;;;;;;;23.88;15.45;;;16.60;51.30;;;;;;5092685;28;20063;-70
2023/01/27 12:31:57;;;;;;;27.33;16.50;;;16.80;53.60;;;;;;5100849;28;20061;-71
2023/01/27 12:34:44;;;;;;;26.92;15.05;;;16.80;53.60;;;;;;5100904;28;20028;-69
2023/01/27 12:37:25;;;;;;;26.50;16.40;;;16.80;53.70;;;;;;5100122;28;20074;-70
2023/01/27 12:40:05;;;;;;;18.88;10.07;;;16.80;53.90;;;;;;5098149;28;20057;-70
2023/01/27 12:42:46;;;;;;;19.20;13.05;;;13.90;45.20;;;;;;5099716;28;20020;-70
2023/01/27 12:45:21;;;;;;;20.30;14.75;;;15.00;53.30;;;;;;5100812;28;20020;-71
2023/01/27 12:48:12;;;;;;;25.40;14.25;;;15.60;55.50;;;;;;5100513;28;20044;-70
2023/01/27 12:50:39;;;;;;;18.05;12.10;;;16.00;54.80;;;;;;5098563;28;20351;-70
2023/01/27 12:53:14;;;;;;;16.75;12.98;;;15.90;53.20;;;;;;5099950;28;20094;-72
2023/01/27 12:55:48;;;;;;;19.27;12.68;;;16.20;54.20;;;;;;5099335;28;20099;-71
2023/01/27 12:58:31;;;;;;;16.42;11.57;;;16.40;53.00;;;;;;5097153;28;20045;-71
2023/01/27 13:00:59;;;;;;;25.02;11.20;;;16.40;52.10;;;;;;5091501;28;20030;-71
2023/01/27 13:03:26;;;;;;;24.40;11.27;;;16.40;51.60;;;;;;5097407;28;20028;-72
2023/01/27 13:05:55;;;;;;;21.70;11.82;;;16.60;51.30;;;;;;5097871;28;20272;-70
2023/01/27 13:08:22;;;;;;;18.67;11.48;;;16.70;51.00;;;;;;5100192;28;20048;-70
2023/01/27 13:10:57;;;;;;;21.50;11.45;;;16.80;51.80;;;;;;5091154;28;20059;-70
2023/01/27 13:13:25;;;;;;;21.67;12.10;;;16.90;51.80;;;;;;5097898;28;20020;-70
2023/01/27 13:15:55;;;;;;;19.63;10.18;;;17.00;51.70;;;;;;5100367;28;20232;-71
2023/01/27 13:18:21;;;;;;;14.65;10.65;;;17.10;51.70;;;;;;5100351;28;20434;-70
2023/01/27 13:20:56;;;;;;;20.67;10.43;;;17.20;51.70;;;;;;5098427;28;20252;-71